Time;durP1;ratioP1;P1;durP2;ratioP2;P2;SDS_P1;SDS_P2;PMS_P1;PMS_P2;Temp;Humidity;BMP_temperature;BMP_pressure;BME280_temperature;BME280_humidity;BME280_pressure;Samples;Min_cycle;Max_cycle;Signal;HPM_P1;HPM_P2
2021/08/30 00:00:53;;;;;;;20.97;18.77;;;;;;;14.24;85.53;96108.53;1688435;84;21014;-82
2021/08/30 00:03:19;;;;;;;21.25;18.98;;;;;;;14.25;85.80;96111.95;1689517;83;21053;-82
2021/08/30 00:05:45;;;;;;;22.62;18.67;;;;;;;14.26;86.00;96105.70;1683124;84;21007;-82
2021/08/30 00:08:11;;;;;;;19.45;17.45;;;;;;;14.28;85.72;96108.91;1650363;84;21006;-82
2021/08/30 00:10:38;;;;;;;21.65;18.92;;;;;;;14.23;85.78;96109.55;1676174;84;21030;-82
2021/08/30 00:13:03;;;;;;;19.35;17.32;;;;;;;14.24;85.57;96112.96;1705862;82;21288;-82
2021/08/30 00:15:29;;;;;;;18.23;16.32;;;;;;;14.22;85.52;96106.64;1707694;82;22248;-82
2021/08/30 00:17:55;;;;;;;17.05;15.32;;;;;;;14.19;85.51;96097.13;1708874;82;21023;-82
2021/08/30 00:20:21;;;;;;;12.07;10.85;;;;;;;14.20;85.53;96100.03;1706503;82;21041;-82
2021/08/30 00:22:46;;;;;;;10.58;8.83;;;;;;;14.19;85.25;96102.35;1688743;84;21064;-82
2021/08/30 00:25:12;;;;;;;10.80;7.30;;;;;;;14.16;85.15;96109.31;1696765;82;21402;-82
2021/08/30 00:27:39;;;;;;;8.73;5.97;;;;;;;14.16;85.17;96110.62;1691155;83;21033;-82
2021/08/30 00:30:06;;;;;;;6.95;5.83;;;;;;;14.12;84.96;96114.93;1644852;84;21063;-83
2021/08/30 00:32:31;;;;;;;7.05;5.03;;;;;;;14.08;84.65;96113.75;1687483;83;21050;-82
2021/08/30 00:34:57;;;;;;;6.80;5.12;;;;;;;13.98;84.49;96118.62;1677004;84;21014;-82
2021/08/30 00:37:23;;;;;;;5.47;4.50;;;;;;;13.90;84.34;96116.77;1682721;84;21057;-82
2021/08/30 00:39:49;;;;;;;6.80;4.45;;;;;;;13.83;84.38;96116.81;1690385;82;20980;-82
2021/08/30 00:42:18;;;;;;;5.30;4.17;;;;;;;13.78;84.41;96111.39;1693771;82;21301;-82
2021/08/30 00:44:44;;;;;;;5.67;5.15;;;;;;;13.72;84.44;96115.65;1697939;82;21147;-82
2021/08/30 00:47:09;;;;;;;5.28;4.35;;;;;;;13.66;84.52;96116.45;1686849;84;21103;-82
2021/08/30 00:49:35;;;;;;;6.25;4.40;;;;;;;13.65;84.91;96114.06;1677257;84;21059;-82
2021/08/30 00:52:01;;;;;;;6.35;4.30;;;;;;;13.65;84.62;96122.69;1683689;84;21058;-82
2021/08/30 00:54:27;;;;;;;6.20;5.00;;;;;;;13.66;84.87;96124.29;1685679;84;21013;-82
2021/08/30 00:56:53;;;;;;;6.53;4.75;;;;;;;13.68;84.78;96122.81;1686065;84;21507;-82
2021/08/30 00:59:19;;;;;;;8.80;5.08;;;;;;;13.65;84.60;96121.38;1679703;84;21068;-82
2021/08/30 01:01:44;;;;;;;10.28;5.60;;;;;;;13.60;84.60;96125.63;1688788;84;21046;-82
2021/08/30 01:04:13;;;;;;;8.53;5.05;;;;;;;13.54;84.58;96127.77;1691851;84;21027;-82
2021/08/30 01:06:48;;;;;;;5.67;4.60;;;;;;;13.48;84.69;96128.87;1681615;84;21119;-82
2021/08/30 01:09:43;;;;;;;7.65;5.45;;;;;;;13.46;84.77;96121.75;1686115;84;21034;-82
2021/08/30 01:12:36;;;;;;;6.08;4.72;;;;;;;13.42;84.68;96123.19;1687479;84;21430;-82
2021/08/30 01:15:08;;;;;;;5.47;4.90;;;;;;;13.38;84.80;96122.50;1683272;84;21064;-82
2021/08/30 01:17:34;;;;;;;5.28;4.78;;;;;;;13.36;85.02;96115.39;1662212;84;21493;-82
2021/08/30 01:20:13;;;;;;;4.97;4.22;;;;;;;13.33;84.87;96115.77;1661552;85;21000;-82
2021/08/30 01:22:42;;;;;;;6.05;3.80;;;;;;;13.27;84.72;96112.69;1683918;84;21007;-82
2021/08/30 01:25:12;;;;;;;6.47;4.12;;;;;;;13.24;84.82;96113.09;1688766;84;21070;-82
2021/08/30 01:27:38;;;;;;;6.58;4.08;;;;;;;13.21;84.97;96116.92;1678938;84;21003;-82
2021/08/30 01:30:09;;;;;;;5.75;4.15;;;;;;;13.19;85.08;96117.12;1661939;84;21440;-82
2021/08/30 01:32:41;;;;;;;6.12;4.37;;;;;;;13.17;85.17;96112.56;1701150;82;21108;-81
2021/08/30 01:35:10;;;;;;;6.70;4.10;;;;;;;13.20;85.51;96117.43;1685779;84;21033;-81
2021/08/30 01:37:38;;;;;;;4.10;3.70;;;;;;;13.20;85.35;96121.84;1705519;83;21015;-81
2021/08/30 01:40:07;;;;;;;5.28;4.20;;;;;;;13.20;85.47;96116.13;1670910;83;21425;-81
2021/08/30 01:42:36;;;;;;;5.30;4.22;;;;;;;13.23;85.48;96116.72;1676203;84;21161;-81
2021/08/30 01:45:04;;;;;;;5.97;4.00;;;;;;;13.21;85.12;96115.62;1705576;82;21003;-81
2021/08/30 01:47:29;;;;;;;6.00;4.62;;;;;;;13.17;85.28;96107.84;1666579;84;21101;-81
2021/08/30 01:50:02;;;;;;;5.75;4.33;;;;;;;13.16;85.49;96107.55;1659668;84;21036;-81
2021/08/30 01:52:38;;;;;;;5.75;4.80;;;;;;;13.16;85.35;96113.57;1700426;82;21099;-81
2021/08/30 01:55:22;;;;;;;5.12;4.62;;;;;;;13.12;85.30;96111.08;1671346;84;21020;-81
2021/08/30 02:00:43;;;;;;;6.53;5.03;;;;;;;13.11;85.25;96109.98;1667356;84;21078;-81
2021/08/30 02:03:06;;;;;;;7.28;5.30;;;;;;;13.11;85.34;96106.87;1679794;83;21047;-81
2021/08/30 02:05:33;;;;;;;5.67;5.10;;;;;;;13.09;85.57;96110.19;1674242;84;21114;-81
2021/08/30 02:07:58;;;;;;;5.75;5.15;;;;;;;13.08;85.52;96110.39;1680960;84;21480;-81
2021/08/30 02:10:24;;;;;;;6.97;5.72;;;;;;;13.12;85.84;96108.47;1681325;84;21094;-81
2021/08/30 02:12:50;;;;;;;6.50;4.65;;;;;;;13.17;85.85;96106.55;1674231;84;20996;-81
2021/08/30 02:15:16;;;;;;;6.55;5.60;;;;;;;13.18;85.43;96106.91;1672507;84;21010;-81
2021/08/30 02:17:45;;;;;;;5.30;4.55;;;;;;;13.13;85.29;96100.94;1677261;84;21441;-81
2021/08/30 02:20:12;;;;;;;7.95;4.15;;;;;;;13.09;85.17;96101.56;1670614;84;21030;-81
2021/08/30 02:22:42;;;;;;;6.10;4.50;;;;;;;13.02;85.20;96101.59;1668382;84;21059;-81
2021/08/30 02:25:12;;;;;;;4.53;3.37;;;;;;;13.03;85.39;96098.47;1676718;84;21013;-81
2021/08/30 02:27:50;;;;;;;4.70;3.65;;;;;;;13.06;85.63;96096.25;1670970;84;21041;-81
2021/08/30 02:30:26;;;;;;;3.62;3.22;;;;;;;13.10;85.44;96084.91;1684903;84;21043;-81
2021/08/30 02:32:53;;;;;;;5.92;4.33;;;;;;;13.06;85.26;96091.04;1669922;84;21073;-81
2021/08/30 02:35:22;;;;;;;5.47;3.70;;;;;;;13.00;85.17;96087.12;1676761;84;21126;-81
2021/08/30 02:37:50;;;;;;;4.62;3.30;;;;;;;12.92;85.12;96090.75;1681616;84;21091;-81
2021/08/30 02:40:16;;;;;;;4.25;2.85;;;;;;;12.92;85.24;96093.36;1674222;84;20980;-81
2021/08/30 02:42:41;;;;;;;4.12;3.55;;;;;;;12.91;85.35;96090.46;1646342;84;21028;-81
2021/08/30 02:45:08;;;;;;;4.40;3.35;;;;;;;12.95;85.69;96085.63;1681461;84;21004;-81
2021/08/30 02:47:34;;;;;;;3.83;3.37;;;;;;;13.01;85.51;96093.94;1671957;84;21037;-81
2021/08/30 02:50:01;;;;;;;3.65;3.12;;;;;;;13.01;85.52;96087.42;1675663;84;21010;-81
2021/08/30 02:52:27;;;;;;;4.08;3.08;;;;;;;12.96;85.40;96093.25;1677209;84;21160;-81
2021/08/30 02:54:53;;;;;;;3.98;3.02;;;;;;;13.00;85.59;96094.44;1647102;84;21128;-81
2021/08/30 02:57:19;;;;;;;4.65;3.27;;;;;;;13.00;85.25;96094.95;1674765;84;21079;-81
2021/08/30 02:59:45;;;;;;;4.42;3.50;;;;;;;12.96;85.17;96091.14;1671788;84;21604;-81
2021/08/30 03:02:10;;;;;;;5.35;3.72;;;;;;;12.96;85.53;96089.84;1669459;84;21103;-81
2021/08/30 03:04:37;;;;;;;4.78;3.45;;;;;;;12.93;85.50;96085.84;1649183;84;21063;-81
2021/08/30 03:07:03;;;;;;;4.50;3.40;;;;;;;12.91;85.51;96083.44;1670408;84;21498;-81
2021/08/30 03:09:29;;;;;;;6.78;3.30;;;;;;;12.91;85.54;96087.85;1651423;84;21532;-81
2021/08/30 03:11:55;;;;;;;3.87;3.27;;;;;;;12.88;85.44;96088.27;1673723;84;21093;-81
2021/08/30 03:14:23;;;;;;;4.20;3.60;;;;;;;12.88;85.42;96089.56;1677443;84;21485;-81
2021/08/30 03:16:51;;;;;;;4.47;3.77;;;;;;;12.87;85.54;96085.36;1713242;82;21421;-81
2021/08/30 03:19:17;;;;;;;4.60;3.83;;;;;;;12.84;85.48;96090.45;1704197;82;21027;-81
2021/08/30 03:21:43;;;;;;;4.75;4.35;;;;;;;12.80;85.50;96089.77;1667738;84;21018;-81
2021/08/30 03:24:10;;;;;;;4.08;3.27;;;;;;;12.76;85.57;96084.66;1658937;84;21456;-81
2021/08/30 03:26:36;;;;;;;5.40;4.53;;;;;;;12.74;85.49;96090.58;1655159;84;21014;-81
2021/08/30 03:29:02;;;;;;;5.35;3.60;;;;;;;12.72;85.52;96084.77;1673941;84;21077;-81
2021/08/30 03:31:30;;;;;;;4.28;3.87;;;;;;;12.71;85.52;96089.19;1703689;82;21349;-81
2021/08/30 03:33:56;;;;;;;4.42;3.90;;;;;;;12.72;85.54;96086.08;1705966;82;21054;-81
2021/08/30 03:36:21;;;;;;;6.12;3.80;;;;;;;12.72;85.57;96093.89;1702316;82;21382;-81
2021/08/30 03:38:47;;;;;;;4.78;3.67;;;;;;;12.69;85.63;96091.20;1679499;84;21051;-81
2021/08/30 03:41:13;;;;;;;4.40;3.52;;;;;;;12.68;85.88;96089.56;1654661;84;21351;-81
2021/08/30 03:43:39;;;;;;;4.20;3.80;;;;;;;12.70;85.86;96091.49;1656157;84;21094;-81
2021/08/30 03:46:05;;;;;;;4.65;3.55;;;;;;;12.71;85.72;96094.40;1679139;82;21394;-81
2021/08/30 03:48:31;;;;;;;4.33;3.65;;;;;;;12.72;85.76;96093.89;1684292;84;21092;-81
2021/08/30 03:50:57;;;;;;;5.22;3.72;;;;;;;12.73;85.87;96101.52;1675684;84;21037;-81
2021/08/30 03:53:22;;;;;;;7.53;4.47;;;;;;;12.71;85.88;96097.51;1684292;83;21026;-81
2021/08/30 03:55:48;;;;;;;4.12;3.70;;;;;;;12.70;86.02;96097.21;1667899;82;21277;-81
2021/08/30 03:58:16;;;;;;;5.10;3.77;;;;;;;12.68;85.97;96097.88;1691055;83;21426;-81
2021/08/30 04:00:42;;;;;;;7.12;3.80;;;;;;;12.68;86.01;96096.58;1686099;84;21051;-81
2021/08/30 04:03:10;;;;;;;5.42;4.00;;;;;;;12.68;86.08;96090.86;1702410;82;21528;-81
2021/08/30 04:05:37;;;;;;;4.92;3.98;;;;;;;12.73;86.33;96095.50;1683811;84;21426;-81
2021/08/30 04:08:03;;;;;;;5.20;3.92;;;;;;;12.78;86.37;96102.20;1708004;82;21039;-81
2021/08/30 04:10:29;;;;;;;6.05;4.28;;;;;;;12.77;86.21;96099.30;1680041;82;21106;-81
2021/08/30 04:12:57;;;;;;;6.95;3.83;;;;;;;12.74;86.22;96101.81;1703752;82;21460;-81
2021/08/30 04:15:24;;;;;;;4.25;3.72;;;;;;;12.74;86.20;96104.92;1697443;82;21037;-81
2021/08/30 04:17:49;;;;;;;7.80;3.85;;;;;;;12.75;86.32;96107.32;1703025;82;21555;-81
2021/08/30 04:20:15;;;;;;;4.92;3.72;;;;;;;12.78;86.41;96104.30;1702269;82;21004;-81
2021/08/30 04:22:41;;;;;;;5.08;3.50;;;;;;;12.81;86.38;96108.31;1704638;82;21357;-81
2021/08/30 04:25:08;;;;;;;6.03;4.08;;;;;;;12.77;86.23;96108.42;1701422;82;21193;-81
2021/08/30 04:27:34;;;;;;;4.12;3.55;;;;;;;12.79;86.57;96111.63;1693688;84;21686;-81
2021/08/30 04:30:00;;;;;;;5.40;3.77;;;;;;;12.83;86.35;96112.31;1685934;84;21015;-81
2021/08/30 04:32:31;;;;;;;4.65;3.80;;;;;;;12.83;86.24;96101.09;1692516;82;21347;-81
2021/08/30 04:34:53;;;;;;;7.33;3.50;;;;;;;12.85;86.07;96102.98;1690204;82;21038;-81
2021/08/30 04:37:21;;;;;;;5.65;3.85;;;;;;;12.84;86.14;96109.20;1694359;82;21038;-81
2021/08/30 04:39:46;;;;;;;5.55;4.00;;;;;;;12.84;86.28;96108.70;1676648;84;20995;-81
2021/08/30 04:42:12;;;;;;;5.25;3.52;;;;;;;12.86;86.50;96108.53;1702175;82;21039;-81
2021/08/30 04:44:38;;;;;;;5.65;3.30;;;;;;;12.88;86.31;96100.80;1701836;82;21111;-81
2021/08/30 04:47:05;;;;;;;4.40;3.65;;;;;;;12.87;86.24;96097.09;1659175;82;20994;-81
2021/08/30 04:49:30;;;;;;;4.83;3.95;;;;;;;12.88;86.26;96100.00;1664477;82;21059;-81
2021/08/30 04:51:56;;;;;;;6.58;5.00;;;;;;;12.89;86.32;96101.59;1697609;82;21078;-81
2021/08/30 04:54:22;;;;;;;7.50;5.47;;;;;;;12.89;86.44;96106.81;1705506;82;21000;-81
2021/08/30 04:56:48;;;;;;;7.20;4.78;;;;;;;12.90;86.45;96112.33;1699888;82;21093;-81
2021/08/30 04:59:14;;;;;;;5.75;5.05;;;;;;;12.84;86.46;96091.75;1703583;82;21378;-81
2021/08/30 05:01:40;;;;;;;6.50;5.20;;;;;;;12.96;86.38;96107.59;1701989;82;21406;-81
2021/08/30 05:04:06;;;;;;;5.87;5.28;;;;;;;12.99;86.56;96105.87;1706512;82;21073;-81
2021/08/30 05:06:32;;;;;;;6.25;5.45;;;;;;;13.01;86.51;96109.08;1705322;82;21102;-81
2021/08/30 05:08:57;;;;;;;6.17;5.20;;;;;;;13.01;86.46;96103.87;1693259;83;21092;-81
2021/08/30 05:11:23;;;;;;;6.00;5.45;;;;;;;13.01;86.39;96110.89;1705752;82;21457;-81
2021/08/30 05:13:49;;;;;;;6.33;5.67;;;;;;;13.03;86.50;96112.81;1686262;84;21098;-81
2021/08/30 05:16:15;;;;;;;7.33;6.40;;;;;;;13.05;86.36;96110.30;1686597;84;21091;-81
2021/08/30 05:18:41;;;;;;;8.90;7.12;;;;;;;13.07;86.46;96117.42;1687107;84;21071;-81
2021/08/30 05:21:08;;;;;;;7.40;6.25;;;;;;;13.04;86.41;96120.94;1693743;84;21066;-81
2021/08/30 05:23:34;;;;;;;6.62;5.90;;;;;;;13.02;86.75;96132.08;1683835;84;21471;-81
2021/08/30 05:26:00;;;;;;;6.83;5.67;;;;;;;13.02;86.82;96119.84;1676893;84;21004;-81
2021/08/30 05:28:26;;;;;;;6.17;5.58;;;;;;;13.05;86.71;96117.33;1662518;84;21016;-81
2021/08/30 05:30:51;;;;;;;5.85;5.28;;;;;;;13.07;86.67;96119.22;1681503;84;21400;-81
2021/08/30 05:33:18;;;;;;;55.05;29.32;;;;;;;13.13;86.85;96127.53;1696354;84;21386;-81
2021/08/30 05:35:44;;;;;;;12.33;9.68;;;;;;;13.15;86.70;96126.31;1690499;84;21027;-81
2021/08/30 05:38:10;;;;;;;11.12;7.05;;;;;;;13.15;86.64;96125.02;1680967;84;21019;-81
2021/08/30 05:40:35;;;;;;;10.72;8.38;;;;;;;13.12;86.57;96116.30;1686816;84;20984;-81
2021/08/30 05:43:01;;;;;;;28.00;17.77;;;;;;;13.16;86.81;96114.08;1673409;82;21070;-81
2021/08/30 05:45:27;;;;;;;16.17;10.50;;;;;;;13.18;86.17;96118.14;1689571;84;21031;-81
2021/08/30 05:47:54;;;;;;;9.18;8.18;;;;;;;13.16;86.15;96120.59;1686319;84;21560;-81
2021/08/30 05:50:20;;;;;;;8.20;6.92;;;;;;;13.15;86.18;96120.30;1691366;83;21033;-81
2021/08/30 05:52:45;;;;;;;28.17;21.60;;;;;;;13.13;86.18;96118.41;1684382;84;21080;-81
2021/08/30 05:55:12;;;;;;;21.82;16.90;;;;;;;13.08;86.14;96108.58;1702341;83;20972;-81
2021/08/30 05:57:38;;;;;;;29.65;20.75;;;;;;;13.09;86.11;96112.00;1713748;82;21063;-81
2021/08/30 06:00:07;;;;;;;21.05;18.85;;;;;;;13.08;86.15;96106.48;1697308;83;21011;-81
2021/08/30 06:02:33;;;;;;;18.42;16.62;;;;;;;13.12;86.31;96111.08;1683556;83;20968;-81
2021/08/30 06:04:59;;;;;;;8.60;7.70;;;;;;;13.15;86.37;96105.95;1697106;83;21066;-81
2021/08/30 06:07:25;;;;;;;8.08;6.85;;;;;;;13.18;86.49;96112.92;1704457;83;21071;-81
2021/08/30 06:09:52;;;;;;;7.03;6.33;;;;;;;13.20;86.42;96112.71;1682075;84;21062;-81
2021/08/30 06:12:17;;;;;;;9.35;7.55;;;;;;;13.20;86.31;96111.41;1694657;84;21023;-81
2021/08/30 06:14:43;;;;;;;9.35;8.45;;;;;;;13.26;86.47;96104.56;1676802;84;20952;-81
2021/08/30 06:17:09;;;;;;;17.02;13.43;;;;;;;13.28;86.34;96105.95;1687558;83;21453;-82
2021/08/30 06:19:35;;;;;;;51.60;35.30;;;;;;;13.25;86.34;96106.87;1679202;83;21078;-81
2021/08/30 06:22:01;;;;;;;38.83;29.42;;;;;;;13.23;86.41;96103.17;1689628;84;21011;-80
2021/08/30 06:24:28;;;;;;;19.40;17.35;;;;;;;13.20;86.20;96100.47;1689948;83;21412;-80
2021/08/30 06:26:53;;;;;;;26.40;21.00;;;;;;;13.21;86.34;96103.38;1680801;84;21019;-79
2021/08/30 06:29:20;;;;;;;10.05;9.08;;;;;;;13.26;86.49;96101.95;1703051;84;21033;-79
2021/08/30 06:31:45;;;;;;;7.25;6.65;;;;;;;13.25;86.37;96102.96;1693066;84;21004;-80
2021/08/30 06:34:11;;;;;;;6.30;5.78;;;;;;;13.25;86.54;96098.55;1684873;83;21058;-80
2021/08/30 06:36:37;;;;;;;6.65;5.95;;;;;;;13.27;86.69;96106.96;1696893;84;21083;-80
2021/08/30 06:39:03;;;;;;;6.55;5.75;;;;;;;13.30;86.77;96100.02;1701019;84;21584;-80
2021/08/30 06:41:29;;;;;;;13.43;11.63;;;;;;;13.37;86.87;96099.52;1674009;84;21071;-80
2021/08/30 06:43:55;;;;;;;10.43;9.33;;;;;;;13.39;86.36;96109.25;1673030;84;21405;-80
2021/08/30 06:46:21;;;;;;;10.25;9.35;;;;;;;13.34;86.30;96105.16;1672850;84;21082;-80
2021/08/30 06:48:46;;;;;;;8.60;7.90;;;;;;;13.34;86.36;96106.45;1693257;83;21059;-80
2021/08/30 06:51:12;;;;;;;9.95;9.15;;;;;;;13.33;86.33;96102.72;1713171;82;21101;-80
2021/08/30 06:53:39;;;;;;;8.88;8.08;;;;;;;13.33;86.63;96102.22;1704684;83;21030;-80
2021/08/30 06:56:05;;;;;;;8.23;7.42;;;;;;;13.35;86.56;96100.23;1706538;84;21047;-80
2021/08/30 06:58:31;;;;;;;8.33;7.53;;;;;;;13.34;86.70;96101.72;1692777;84;21401;-80
2021/08/30 07:00:57;;;;;;;8.48;7.65;;;;;;;13.37;86.73;96097.41;1685264;84;20995;-80
2021/08/30 07:03:23;;;;;;;7.85;7.15;;;;;;;13.30;86.55;96095.31;1695021;84;21072;-80
2021/08/30 07:05:49;;;;;;;9.08;8.35;;;;;;;13.21;86.63;96095.55;1669686;85;21433;-80
2021/08/30 07:08:15;;;;;;;8.28;7.28;;;;;;;13.14;86.85;96099.93;1678534;84;21039;-80
2021/08/30 07:10:41;;;;;;;7.95;7.15;;;;;;;13.17;87.38;96097.41;1685423;84;20986;-80
2021/08/30 07:13:07;;;;;;;9.05;8.03;;;;;;;13.18;87.45;96099.08;1689072;84;21063;-80
2021/08/30 07:15:33;;;;;;;6.80;6.20;;;;;;;13.27;87.86;96091.81;1686432;84;21004;-79
2021/08/30 07:18:00;;;;;;;6.80;6.20;;;;;;;13.34;87.50;96096.49;1690807;84;21144;-80
2021/08/30 07:20:26;;;;;;;6.42;5.83;;;;;;;13.42;87.78;96094.98;1691656;84;21048;-80
2021/08/30 07:22:52;;;;;;;5.70;5.17;;;;;;;13.48;87.70;96103.28;1695982;84;21081;-79
2021/08/30 07:25:17;;;;;;;5.50;5.00;;;;;;;13.43;87.17;96099.19;1689434;84;21031;-79
2021/08/30 07:27:43;;;;;;;5.83;5.33;;;;;;;13.37;87.20;96102.12;1694554;84;21592;-79
2021/08/30 07:30:10;;;;;;;5.87;5.37;;;;;;;13.38;87.39;96102.42;1688810;84;21023;-79
2021/08/30 07:32:36;;;;;;;7.45;6.75;;;;;;;13.41;87.65;96105.13;1688890;83;20994;-79
2021/08/30 07:35:02;;;;;;;6.97;6.28;;;;;;;13.43;87.60;96101.80;1682532;84;21067;-79
2021/08/30 07:37:27;;;;;;;17.48;15.83;;;;;;;13.45;87.53;96108.91;1689841;83;21036;-79
2021/08/30 07:39:53;;;;;;;9.53;8.48;;;;;;;13.47;87.81;96108.20;1694253;84;21362;-79
2021/08/30 07:42:19;;;;;;;8.70;7.90;;;;;;;13.49;87.86;96106.98;1700800;84;21550;-79
2021/08/30 07:44:45;;;;;;;6.62;5.92;;;;;;;13.49;87.60;96105.67;1684328;84;22062;-79
2021/08/30 07:47:10;;;;;;;6.83;6.22;;;;;;;13.49;87.31;96112.70;1717458;83;20973;-79
2021/08/30 07:49:36;;;;;;;7.62;6.92;;;;;;;13.41;87.02;96116.36;1700316;82;21023;-79
2021/08/30 07:52:03;;;;;;;8.65;7.85;;;;;;;13.43;87.68;96114.84;1696879;83;21454;-79
2021/08/30 07:54:29;;;;;;;8.40;7.53;;;;;;;13.47;87.73;96113.42;1685815;84;21034;-79
2021/08/30 07:56:55;;;;;;;7.47;6.78;;;;;;;13.45;87.80;96117.55;1689912;84;21055;-79
2021/08/30 07:59:20;;;;;;;7.22;6.55;;;;;;;13.49;87.86;96120.03;1684510;84;21380;-79
2021/08/30 08:01:47;;;;;;;6.60;6.10;;;;;;;13.49;87.60;96116.12;1669550;84;21019;-79
2021/08/30 08:04:12;;;;;;;6.92;6.33;;;;;;;13.48;87.46;96117.63;1686432;84;20992;-79
2021/08/30 08:06:38;;;;;;;7.80;7.00;;;;;;;13.46;87.38;96119.14;1684415;84;21372;-79
2021/08/30 08:09:05;;;;;;;9.73;8.70;;;;;;;13.51;87.83;96122.47;1680400;84;21017;-79
2021/08/30 08:11:31;;;;;;;9.70;8.80;;;;;;;13.51;87.60;96127.69;1680247;84;20989;-79
2021/08/30 08:13:57;;;;;;;10.88;9.88;;;;;;;13.50;87.95;96125.58;1693163;84;21057;-79
2021/08/30 08:16:23;;;;;;;10.50;9.50;;;;;;;13.54;87.78;96134.30;1674534;83;20987;-79
2021/08/30 08:18:49;;;;;;;10.78;9.78;;;;;;;13.57;87.81;96128.16;1686691;83;21547;-79
2021/08/30 08:21:15;;;;;;;12.10;11.00;;;;;;;13.62;87.69;96127.02;1699274;82;21135;-79
2021/08/30 08:23:40;;;;;;;11.75;10.75;;;;;;;13.63;87.62;96133.84;1669796;84;21083;-79
2021/08/30 08:26:06;;;;;;;13.55;12.25;;;;;;;13.62;87.43;96133.55;1718001;83;22066;-79
2021/08/30 08:28:32;;;;;;;12.82;11.55;;;;;;;13.61;87.58;96129.34;1677855;84;21019;-79
2021/08/30 08:30:58;;;;;;;14.13;12.82;;;;;;;13.66;88.30;96131.32;1677582;83;21067;-79
2021/08/30 08:33:23;;;;;;;12.33;11.22;;;;;;;13.74;88.25;96127.19;1694233;84;20995;-79
2021/08/30 08:35:49;;;;;;;12.98;11.75;;;;;;;13.77;87.59;96130.69;1671931;84;21073;-79
2021/08/30 08:38:15;;;;;;;14.78;13.43;;;;;;;13.77;87.49;96128.87;1695850;84;21023;-79
2021/08/30 08:40:41;;;;;;;14.40;13.03;;;;;;;13.84;87.76;96131.98;1702625;83;21063;-79
2021/08/30 08:43:12;;;;;;;11.73;10.72;;;;;;;13.82;87.33;96130.86;1686357;84;21004;-79
2021/08/30 08:45:40;;;;;;;10.20;9.23;;;;;;;13.76;87.23;96129.09;1699466;83;20973;-79
2021/08/30 08:48:07;;;;;;;10.23;9.33;;;;;;;13.80;87.38;96131.06;1702425;83;21011;-79
2021/08/30 08:50:33;;;;;;;10.45;9.55;;;;;;;13.81;86.74;96133.97;1686187;84;20979;-79
2021/08/30 08:53:04;;;;;;;11.83;10.72;;;;;;;13.74;86.39;96138.44;1652139;84;21059;-79
2021/08/30 08:55:27;;;;;;;11.00;9.90;;;;;;;13.71;86.80;96141.97;1681579;84;21020;-79
2021/08/30 08:57:53;;;;;;;11.48;10.38;;;;;;;13.68;87.15;96139.27;1679406;84;21035;-79
2021/08/30 09:00:20;;;;;;;11.48;10.28;;;;;;;13.59;86.98;96140.49;1707695;82;21055;-79
2021/08/30 09:02:49;;;;;;;11.65;10.50;;;;;;;13.59;87.25;96144.41;1704153;82;21100;-79
2021/08/30 09:05:24;;;;;;;11.05;9.95;;;;;;;13.54;87.37;96142.13;1707223;83;21111;-79
2021/08/30 09:07:50;;;;;;;10.88;9.75;;;;;;;13.48;87.16;96142.43;1714695;83;21015;-79
2021/08/30 09:10:20;;;;;;;10.85;9.75;;;;;;;13.43;87.38;96137.83;1711263;82;21023;-79
2021/08/30 09:12:48;;;;;;;8.83;8.03;;;;;;;13.43;87.56;96142.25;1678704;84;21018;-79
2021/08/30 09:15:20;;;;;;;9.38;8.48;;;;;;;13.47;87.38;96140.32;1686006;83;21510;-79
2021/08/30 09:17:51;;;;;;;10.78;9.73;;;;;;;13.49;87.39;96138.30;1702986;84;21087;-79
2021/08/30 09:20:19;;;;;;;10.03;9.03;;;;;;;13.53;87.68;96135.31;1702197;84;21067;-79
2021/08/30 09:22:45;;;;;;;10.95;9.90;;;;;;;13.54;87.55;96135.61;1687493;84;21002;-79
2021/08/30 09:25:11;;;;;;;12.25;11.05;;;;;;;13.54;87.63;96139.02;1682525;82;21506;-79
2021/08/30 09:27:41;;;;;;;11.48;10.40;;;;;;;13.56;87.88;96138.30;1696129;82;20994;-79
2021/08/30 09:30:13;;;;;;;12.50;11.40;;;;;;;13.55;87.85;96135.39;1696372;82;21022;-79
2021/08/30 09:32:47;;;;;;;12.20;10.98;;;;;;;13.56;87.47;96133.08;1697973;83;21090;-79
2021/08/30 09:35:13;;;;;;;10.53;9.63;;;;;;;13.56;87.65;96130.47;1704443;83;21039;-79
2021/08/30 09:37:42;;;;;;;12.43;11.22;;;;;;;13.53;87.04;96130.89;1668142;84;21160;-79
2021/08/30 09:40:14;;;;;;;13.75;12.45;;;;;;;13.51;87.45;96141.54;1680659;84;21075;-80
2021/08/30 09:42:46;;;;;;;15.98;14.30;;;;;;;13.45;87.73;96136.31;1687437;84;21080;-79
2021/08/30 09:45:20;;;;;;;;;;;;;;;13.40;87.95;96137.45;1704567;84;21098;-79
2021/08/30 09:47:59;;;;;;;14.70;13.30;;;;;;;13.42;88.32;96139.34;1682575;84;20123;-79
2021/08/30 09:50:39;;;;;;;13.35;12.07;;;;;;;13.43;88.46;96142.25;1685744;84;21067;-79
2021/08/30 09:53:04;;;;;;;12.65;11.45;;;;;;;13.41;88.39;96141.66;1680276;84;21069;-79
2021/08/30 09:55:31;;;;;;;14.35;12.98;;;;;;;13.40;88.35;96139.55;1682901;84;21406;-79
2021/08/30 09:57:57;;;;;;;13.78;12.45;;;;;;;13.34;88.21;96148.21;1676363;84;21079;-79
2021/08/30 10:00:24;;;;;;;13.00;11.70;;;;;;;13.34;88.46;96142.98;1697377;84;21037;-79
2021/08/30 10:02:54;;;;;;;14.28;12.88;;;;;;;13.34;88.81;96148.69;1689059;84;21679;-79
2021/08/30 10:05:22;;;;;;;13.72;12.43;;;;;;;13.30;88.91;96148.80;1688459;84;21544;-79
2021/08/30 10:07:48;;;;;;;14.50;12.88;;;;;;;13.28;88.78;96152.13;1666061;84;21390;-79
2021/08/30 10:10:16;;;;;;;13.35;11.95;;;;;;;13.28;88.99;96147.70;1690229;84;21135;-79
2021/08/30 10:12:42;;;;;;;13.20;11.90;;;;;;;13.29;88.91;96145.89;1672638;84;21102;-79
2021/08/30 10:15:10;;;;;;;13.10;11.80;;;;;;;13.31;88.81;96145.98;1662531;84;21430;-79
2021/08/30 10:17:43;;;;;;;14.43;12.65;;;;;;;13.34;89.02;96144.30;1674089;84;21081;-80
2021/08/30 10:20:10;;;;;;;14.70;13.20;;;;;;;13.36;88.79;96144.89;1661517;84;21562;-80
2021/08/30 10:22:36;;;;;;;14.25;12.82;;;;;;;13.35;88.84;96151.63;1667196;84;21106;-80
2021/08/30 10:25:02;;;;;;;16.80;14.95;;;;;;;13.38;89.11;96147.30;1695784;84;21378;-80
2021/08/30 10:27:33;;;;;;;16.02;14.40;;;;;;;13.38;89.20;96151.20;1667110;84;21354;-80
2021/08/30 10:30:11;;;;;;;14.78;13.32;;;;;;;13.40;89.25;96150.50;1687388;82;21396;-80
2021/08/30 10:32:40;;;;;;;14.60;13.10;;;;;;;13.45;89.27;96151.47;1706041;83;21078;-80
2021/08/30 10:35:18;;;;;;;14.75;13.15;;;;;;;13.55;89.54;96149.75;1681304;84;21062;-80
2021/08/30 10:37:59;;;;;;;12.68;11.48;;;;;;;13.61;89.53;96150.73;1680819;84;22148;-80
2021/08/30 10:40:28;;;;;;;16.85;13.53;;;;;;;13.65;89.14;96155.33;1656365;84;21156;-80
2021/08/30 10:43:13;;;;;;;15.98;13.72;;;;;;;13.72;89.40;96154.81;1694186;84;21059;-80
2021/08/30 10:46:02;;;;;;;14.03;12.53;;;;;;;13.69;88.81;96155.23;1637814;85;21410;-80
2021/08/30 10:48:35;;;;;;;12.45;11.08;;;;;;;13.65;88.64;96158.44;1682835;84;20995;-80
2021/08/30 10:51:14;;;;;;;13.20;11.10;;;;;;;13.61;88.62;96158.56;1667473;84;21006;-80
2021/08/30 10:53:40;;;;;;;11.97;10.78;;;;;;;13.59;88.51;96162.69;1651185;86;21188;-80
2021/08/30 10:56:09;;;;;;;12.95;11.53;;;;;;;13.58;88.28;96162.39;1698844;82;21046;-80
2021/08/30 10:58:36;;;;;;;14.63;12.15;;;;;;;13.60;88.61;96159.06;1680173;83;20992;-80
2021/08/30 11:01:14;;;;;;;13.32;12.03;;;;;;;13.65;88.91;96166.27;1672500;84;21114;-80
2021/08/30 11:03:40;;;;;;;13.22;11.93;;;;;;;13.68;88.94;96166.69;1699507;82;21039;-80
2021/08/30 11:06:10;;;;;;;15.43;11.73;;;;;;;13.66;88.47;96171.79;1656650;85;21089;-79
2021/08/30 11:08:41;;;;;;;13.78;11.93;;;;;;;13.66;88.49;96169.18;1678942;84;21354;-80
2021/08/30 11:11:20;;;;;;;9.83;8.93;;;;;;;13.68;88.80;96181.55;1670852;84;21028;-80
2021/08/30 11:14:10;;;;;;;11.78;10.03;;;;;;;13.68;87.92;96172.41;1706006;83;21023;-80
2021/08/30 11:16:37;;;;;;;10.85;9.75;;;;;;;13.64;88.29;96179.83;1693939;83;21186;-80
2021/08/30 11:19:10;;;;;;;11.63;10.00;;;;;;;13.59;87.97;96177.05;1712533;83;21476;-80
2021/08/30 11:21:50;;;;;;;12.45;11.20;;;;;;;13.58;88.24;96179.86;1702853;83;21023;-80
2021/08/30 11:24:24;;;;;;;9.70;8.73;;;;;;;13.63;88.62;96182.14;1691856;83;21088;-80
2021/08/30 11:26:53;;;;;;;10.08;8.98;;;;;;;13.60;87.35;96185.17;1695008;83;21028;-80
2021/08/30 11:29:19;;;;;;;11.18;9.65;;;;;;;13.55;87.45;96192.83;1691573;83;21044;-80
2021/08/30 11:31:44;;;;;;;11.95;10.75;;;;;;;13.47;87.76;96192.52;1671647;83;21034;-80
2021/08/30 11:34:23;;;;;;;12.03;10.88;;;;;;;13.46;88.19;96192.73;1691579;83;21008;-79